METAR stanice u blizini

 

LYBE - Beograd / Surčin, Srbija
Ažurirano: 23/02/2024 09:00
Slaba kiša, Delimično oblačno
Slaba kiša, Delimično oblačno
 Pravac vetra JJI
Vetar: JJI 24 km/h
Temperatura: 13°C
Tačka rose: 3°C
Vlažnost: 51%
Pritisak: 1008 hPa
Pregled: Light Rain
Oblaci: Partly Cloudy
Vidljivost: 10 km
Cloud details: Partly Cloudy 1311 m
2024/02/23 08:00 LYBE 230800Z 16013KT 9999 -RA SCT043 13/03 Q1008 NOSIG
LYBT - Beograd / Batajnica, Srbija
Ažurirano: 23/02/2024 09:00
Slaba kiša, Delimično oblačno
Slaba kiša, Delimično oblačno
 Pravac vetra JJI
Vetar: JJI 20 km/h
Temperatura: 12°C
Tačka rose: 3°C
Vlažnost: 54%
Pritisak: 1008 hPa
Pregled: Light Rain
Oblaci: Partly Cloudy
Vidljivost: 10 km
Cloud details: Partly Cloudy 1219 m
2024/02/23 08:00 LYBT 230800Z 15011KT 9999 -RA SCT040 12/03 Q1008 NOSIG
LYVR - Vršac, Srbija
Ažurirano: 23/02/2024 09:00
Partly Cloudy
Partly Cloudy
 Pravac vetra JI
Vetar: JI 31 km/h
Temperatura: 12°C
Tačka rose: 1°C
Vlažnost: 47%
Pritisak: 1009 hPa
Oblaci: Partly Cloudy
Vidljivost: 10 km
Cloud details: Partly Cloudy 1219 m
2024/02/23 08:00 LYVR 230800Z 14017KT 9999 SCT040 12/01 Q1009 NOSIG
 
LYKV - Lađevci, Srbija
Ažurirano: 23/02/2024 09:00
Vedro
Vedro
 Pravac vetra JJI
Vetar: JJI 15 km/h
Temperatura: 10°C
Osećaj hladnoće: 8°C
Tačka rose: 5°C
Vlažnost: 71%
Pritisak: 1010 hPa
Pregled: Vedro
Vidljivost: greater than 10 km
2024/02/23 08:00 LYKV 230800Z 15008KT CAVOK 10/05 Q1010 NOSIG
LYNI - Niš, Srbija
Ažurirano: 23/02/2024 09:00
Partly Cloudy
Partly Cloudy
 Pravac vetra J
Vetar: J 15 km/h
Temperatura: 13°C
Tačka rose: 3°C
Vlažnost: 51%
Pritisak: 1013 hPa
Oblaci: Partly Cloudy
Vidljivost: 10 km
Cloud details: Few Clouds 1006 m
Partly Cloudy 1524 m
2024/02/23 08:00 LYNI 230800Z 18008KT 140V230 9999 FEW033 SCT050 13/03 Q1013 NOSIG
BKPR - Priština, Srbija
Ažurirano: 23/02/2024 09:30
Mostly Cloudy
Mostly Cloudy
 Pravac vetra JJI
Vetar: JJI 11 km/h
Temperatura: 11°C
Tačka rose: 4°C
Vlažnost: 62%
Pritisak: 1013 hPa
Oblaci: Mostly Cloudy
Vidljivost: 10 km
Cloud details: Few Clouds 1524 m
Mostly Cloudy 2743 m
2024/02/23 08:30 BKPR 230830Z 15006KT 9999 FEW050 BKN090 11/04 Q1013 NOSIG
 
LHPP - Pecs / Pogany, Hungary
Ažurirano: 23/02/2024 08:45
Vedro
Vedro
 Pravac vetra varies
Vetar: varies 4 km/h
Temperatura: 9°C
Tačka rose: 6°C
Vlažnost: 82%
Pritisak: 1006 hPa
Pregled: Vedro
Vidljivost: greater than 10 km
2024/02/23 07:45 LHPP 230745Z AUTO VRB02KT CAVOK 09/06 Q1006
LHUD - Szeged, Hungary
Ažurirano: 04/07/2019 01:45
NOT Current
Vedro
Vedro
 Pravac vetra S
Vetar: S 7 km/h
Temperatura: 18°C
Tačka rose: 13°C
Vlažnost: 73%
Pritisak: 1019 hPa
Pregled: Vedro
Vidljivost: greater than 10 km
2019/07/03 23:45 LHUD 032345Z 35004KT CAVOK 18/13 Q1019
LRTR - Timisoara, Romania
Ažurirano: 23/02/2024 09:00
Vedro
Vedro
 Pravac vetra J
Vetar: J 22 km/h
Temperatura: 11°C
Tačka rose: 0°C
Vlažnost: 47%
Pritisak: 1008 hPa
Pregled: Vedro
Vidljivost: greater than 10 km
2024/02/23 08:00 LRTR 230800Z 18012KT CAVOK 11/M00 Q1008
 
LRCV - Craiova, Romania
Ažurirano: 23/02/2024 09:00
Vedro
Vedro
 Pravac vetra IJI
Vetar: IJI 6 km/h
Temperatura: 10°C
Tačka rose: 2°C
Vlažnost: 58%
Pritisak: 1012 hPa
Pregled: Vedro
Vidljivost: greater than 10 km
2024/02/23 08:00 LRCV 230800Z 12003KT CAVOK 10/02 Q1012
LBSF - Sofia, Bulgaria
Ažurirano: 23/02/2024 09:00
Vedro
Vedro
 Pravac vetra SI
Vetar: SI 11 km/h
Temperatura: 10°C
Osećaj hladnoće: 8°C
Tačka rose: 2°C
Vlažnost: 58%
Pritisak: 1014 hPa
Pregled: Vedro
Vidljivost: greater than 10 km
2024/02/23 08:00 LBSF 230800Z 04006KT 340V080 CAVOK 10/02 Q1014 NOSIG
LWSK - Skoplje, Makedonija
Ažurirano: 23/02/2024 09:00
Few Clouds
Few Clouds
 Pravac vetra calm
Vetar: Tišina
Temperatura: 8°C
Tačka rose: 4°C
Vlažnost: 76%
Pritisak: 1015 hPa
Oblaci: Few Clouds
Vidljivost: 10 km
Cloud details: Few Clouds 1219 m
2024/02/23 08:00 LWSK 230800Z 00000KT 9999 FEW040 08/04 Q1015 NOSIG
 
LYPG - Podgorica, Crna Gora
Ažurirano: 23/02/2024 09:00
Slaba kiša, Pretežno oblačno
Slaba kiša, Pretežno oblačno
 Pravac vetra JI
Vetar: JI 17 km/h
Temperatura: 12°C
Tačka rose: 9°C
Vlažnost: 82%
Pritisak: 1015 hPa
Pregled: Light Rain
Oblaci: Mostly Cloudy
Vidljivost: 10 km
Cloud details: Few Clouds 792 m
Partly Cloudy 1036 m
Mostly Cloudy 2438 m
2024/02/23 08:00 LYPG 230800Z 13009KT 100V160 9999 -RA FEW026 SCT034 BKN080 12/09 Q1015 NOSIG
LQSA - Sarajevo, Bosna i Hercegovina
Ažurirano: 23/02/2024 09:00
Mostly Cloudy
Mostly Cloudy
 Pravac vetra JI
Vetar: JI 17 km/h
Temperatura: 12°C
Tačka rose: 1°C
Vlažnost: 47%
Pritisak: 1009 hPa
Oblaci: Mostly Cloudy
Vidljivost: 10 km
Cloud details: Mostly Cloudy 1829 m
2024/02/23 08:00 LQSA 230800Z 13009KT 100V170 9999 BKN060 12/01 Q1009 NOSIG
LDOS - Osijek, Hrvatksa
Ažurirano: 23/02/2024 09:00
Vedro
Vedro
 Pravac vetra J
Vetar: J 15 km/h
Temperatura: 11°C
Tačka rose: 5°C
Vlažnost: 67%
Pritisak: 1006 hPa
Pregled: Vedro
Vidljivost: greater than 10 km
2024/02/23 08:00 LDOS 230800Z 18008KT CAVOK 11/05 Q1006